Virgil, South Dakota
Current Conditions -  °F | °C
As of 11:55 PM on Sunday 19 Oct 2014 (Local Time) from KHON Reporting Station
Clear Clear  
Wind Chill: 38°   Ceiling: Unl
Heat Index: 41°   Visibility: 10mi
Dew Point: 34°   Wind: 5mph
Humidity: 76%   Direction: 310°NW
Pressure: 30"   Gusts: NA
Location:  44.29°N, 98.42°W
Report Text: KHON 200455Z AUTO 31004KT 10SM CLR 05/01 A3000 RMK AO2 SLP163 T00500011
Loading
Personal Weather Stations






























Interactive Weather Map
Tropical Storm Tracking
New forecast layout! Learn more

10-Day Weather Forecast

Advertisements
Track Severe Weather on mobile